Stockbridge, Michigan
Current Conditions -  °F | °C
As of 10:32 AM on Thursday 23 Oct 2014 (Local Time) from KTEW Reporting Station
Haze Haze  
Wind Chill: 38°   Ceiling: 200
Heat Index: 38°   Visibility: 3mi
Dew Point: 38°   Wind: 0mph
Humidity: 98%   Direction: NA
Pressure: 30.25"   Gusts: NA
Location:  42.45°N, 84.18°W
Report Text: KTEW 231432Z AUTO 00000KT 3SM BR BKN002 04/03 A3025 RMK AO2 T00360033
Loading
Personal Weather Stations






























Interactive Weather Map
Tropical Storm Tracking
New forecast layout! Learn more

10-Day Weather Forecast

Advertisements
Track Severe Weather on mobile